createdAt,value
2022-09-15T00:00:21.555Z,37
2022-09-15T00:01:23.316Z,36.9
2022-09-15T00:02:25.519Z,36.9
2022-09-15T00:03:27.558Z,37
2022-09-15T00:04:29.221Z,37
2022-09-15T00:05:31.242Z,37
2022-09-15T00:06:33.064Z,37
2022-09-15T00:07:34.728Z,37
2022-09-15T00:08:36.277Z,37
2022-09-15T00:09:37.835Z,37
2022-09-15T00:10:39.548Z,36.9
2022-09-15T00:11:41.158Z,37
2022-09-15T00:12:42.794Z,37
2022-09-15T00:13:44.727Z,36.9
2022-09-15T00:14:46.776Z,36.9
2022-09-15T00:15:48.380Z,37
2022-09-15T00:16:50.157Z,37
2022-09-15T00:17:52.129Z,37
2022-09-15T00:18:53.779Z,37
2022-09-15T00:19:55.434Z,37
2022-09-15T00:20:57.415Z,37
2022-09-15T00:21:59.049Z,37
2022-09-15T00:23:00.632Z,37
2022-09-15T00:24:02.261Z,37
2022-09-15T00:25:03.814Z,37
2022-09-15T00:26:05.453Z,37
2022-09-15T00:27:07.098Z,36.9
2022-09-15T00:28:08.637Z,37
2022-09-15T00:29:10.279Z,37
2022-09-15T00:30:11.788Z,37
2022-09-15T00:31:13.635Z,37
2022-09-15T00:32:15.566Z,37
2022-09-15T00:33:17.235Z,37.1
2022-09-15T00:34:18.767Z,37.1
2022-09-15T00:35:20.428Z,37.1
2022-09-15T00:36:22.201Z,37.1
2022-09-15T00:37:24.060Z,37.1
2022-09-15T00:38:25.610Z,37
2022-09-15T00:39:27.141Z,37.1
2022-09-15T00:40:28.817Z,37.1
2022-09-15T00:41:30.777Z,37.2
2022-09-15T00:42:32.599Z,37.2
2022-09-15T00:43:34.135Z,37.1
2022-09-15T00:44:35.652Z,37.1
2022-09-15T00:45:37.528Z,37.1
2022-09-15T00:46:39.451Z,37.1
2022-09-15T00:47:41.227Z,37.1
2022-09-15T00:48:42.785Z,37.1
2022-09-15T00:49:44.352Z,37.1
2022-09-15T00:50:46.019Z,37
2022-09-15T00:51:47.907Z,37
2022-09-15T00:52:49.644Z,37.1
2022-09-15T00:53:51.554Z,37.1
2022-09-15T00:54:53.870Z,37.1
2022-09-15T00:55:55.515Z,37.1
2022-09-15T00:56:57.070Z,37.1
2022-09-15T00:57:58.743Z,37.1
2022-09-15T00:59:00.291Z,37
2022-09-15T01:00:02.002Z,37.1
2022-09-15T01:01:03.726Z,37.1
2022-09-15T01:02:05.841Z,37.1
2022-09-15T01:03:07.919Z,37.1
2022-09-15T01:04:09.458Z,37
2022-09-15T01:05:11.101Z,37.1
2022-09-15T01:06:12.746Z,37.2
2022-09-15T01:07:14.664Z,37.2
2022-09-15T01:08:16.381Z,37.2
2022-09-15T01:09:18.422Z,37.1
2022-09-15T01:10:19.966Z,37.2
2022-09-15T01:11:21.725Z,37.2
2022-09-15T01:12:23.251Z,37.3
2022-09-15T01:13:24.788Z,37.3
2022-09-15T01:14:26.355Z,37.3
2022-09-15T01:15:27.886Z,37.3
2022-09-15T01:16:29.792Z,37.3
2022-09-15T01:17:31.705Z,37.2
2022-09-15T01:18:33.245Z,37.3
2022-09-15T01:19:35.097Z,37.3
2022-09-15T01:20:36.633Z,37.4
2022-09-15T01:21:38.356Z,37.4
2022-09-15T01:22:40.157Z,37.4
2022-09-15T01:23:41.891Z,37.4
2022-09-15T01:24:43.627Z,37.3
2022-09-15T01:25:45.296Z,37.3
2022-09-15T01:26:46.965Z,37.3
2022-09-15T01:27:48.664Z,37.3
2022-09-15T01:28:50.315Z,37.4
2022-09-15T01:29:51.862Z,37.5
2022-09-15T01:30:53.508Z,37.4
2022-09-15T01:31:55.152Z,37.4
2022-09-15T01:32:56.930Z,37.4
2022-09-15T01:33:58.464Z,37.4
2022-09-15T01:34:59.995Z,37.4
2022-09-15T01:36:01.725Z,37.4
2022-09-15T01:37:03.447Z,37.4
2022-09-15T01:38:05.137Z,37.5
2022-09-15T01:39:06.765Z,37.5
2022-09-15T01:40:08.537Z,37.5
2022-09-15T01:41:10.468Z,37.5
2022-09-15T01:42:12.004Z,37.5
2022-09-15T01:43:13.649Z,37.6
2022-09-15T01:44:15.336Z,37.5
2022-09-15T01:45:16.888Z,37.5
2022-09-15T01:46:18.794Z,37.4
2022-09-15T01:47:20.606Z,37.5
2022-09-15T01:48:22.293Z,37.5
2022-09-15T01:49:23.875Z,37.5
2022-09-15T01:50:25.473Z,37.4
2022-09-15T01:51:27.118Z,37.5
2022-09-15T01:52:28.741Z,37.5
2022-09-15T01:53:30.636Z,37.5
2022-09-15T01:54:32.242Z,37.5
2022-09-15T01:55:33.791Z,37.4
2022-09-15T01:56:35.635Z,37.5
2022-09-15T01:57:37.177Z,37.5
2022-09-15T01:58:38.940Z,37.4
2022-09-15T01:59:40.539Z,37.5
2022-09-15T02:00:42.384Z,37.5
2022-09-15T02:01:44.524Z,37.4
2022-09-15T02:02:46.649Z,37.4
2022-09-15T02:03:48.270Z,37.4
2022-09-15T02:04:49.938Z,37.4
2022-09-15T02:05:51.589Z,37.4
2022-09-15T02:06:53.212Z,37.5
2022-09-15T02:07:54.941Z,37.5
2022-09-15T02:08:56.751Z,37.5
2022-09-15T02:09:58.575Z,37.5
2022-09-15T02:11:00.220Z,37.5
2022-09-15T02:12:01.752Z,37.6
2022-09-15T02:13:03.412Z,37.6
2022-09-15T02:14:05.058Z,37.5
2022-09-15T02:15:06.699Z,37.5
2022-09-15T02:16:08.366Z,37.6
2022-09-15T02:17:10.174Z,37.5
2022-09-15T02:18:12.049Z,37.4
2022-09-15T02:19:13.576Z,37.5
2022-09-15T02:20:15.215Z,37.5
2022-09-15T02:21:16.980Z,37.5
2022-09-15T02:22:18.729Z,37.5
2022-09-15T02:23:20.333Z,37.5
2022-09-15T02:24:22.038Z,37.5
2022-09-15T02:25:23.651Z,37.5
2022-09-15T02:26:25.272Z,37.5
2022-09-15T02:27:26.960Z,37.4
2022-09-15T02:28:28.606Z,37.4
2022-09-15T02:29:30.250Z,37.5
2022-09-15T02:30:31.894Z,37.5
2022-09-15T02:31:33.676Z,37.5
2022-09-15T02:32:35.587Z,37.5
2022-09-15T02:33:37.230Z,37.5
2022-09-15T02:34:38.878Z,37.5
2022-09-15T02:35:40.626Z,37.5
2022-09-15T02:36:42.165Z,37.5
2022-09-15T02:37:43.825Z,37.5
2022-09-15T02:38:45.665Z,37.5
2022-09-15T02:39:47.487Z,37.5
2022-09-15T02:40:49.363Z,37.6
2022-09-15T02:41:50.981Z,37.6
2022-09-15T02:42:52.555Z,37.5
2022-09-15T02:43:54.261Z,37.5
2022-09-15T02:44:55.991Z,37.5
2022-09-15T02:45:57.702Z,37.6
2022-09-15T02:46:59.544Z,37.6
2022-09-15T02:48:01.191Z,37.6
2022-09-15T02:49:02.831Z,37.6
2022-09-15T02:50:04.356Z,37.6
2022-09-15T02:51:06.022Z,37.7
2022-09-15T02:52:07.549Z,37.7
2022-09-15T02:53:09.091Z,37.6
2022-09-15T02:54:10.855Z,37.6
2022-09-15T02:55:12.723Z,37.6
2022-09-15T02:56:14.328Z,37.6
2022-09-15T02:57:16.000Z,37.6
2022-09-15T02:58:17.641Z,37.6
2022-09-15T02:59:19.191Z,37.6
2022-09-15T03:00:20.935Z,37.5
2022-09-15T03:01:22.713Z,37.5
2022-09-15T03:02:25.022Z,37.5
2022-09-15T03:03:27.065Z,37.5
2022-09-15T03:04:28.604Z,37.6
2022-09-15T03:05:30.145Z,37.6
2022-09-15T03:06:31.840Z,37.6
2022-09-15T03:07:33.572Z,37.6
2022-09-15T03:08:35.131Z,37.6
2022-09-15T03:09:36.687Z,37.5
2022-09-15T03:10:38.538Z,37.5
2022-09-15T03:11:40.359Z,37.6
2022-09-15T03:12:42.111Z,37.6
2022-09-15T03:13:43.801Z,37.6
2022-09-15T03:14:45.342Z,37.6
2022-09-15T03:15:46.937Z,37.6
2022-09-15T03:16:48.699Z,37.6
2022-09-15T03:17:50.437Z,37.6
2022-09-15T03:18:52.054Z,37.5
2022-09-15T03:19:53.687Z,37.5
2022-09-15T03:20:55.374Z,37.5
2022-09-15T03:21:57.015Z,37.5
2022-09-15T03:22:58.658Z,37.4
2022-09-15T03:24:00.410Z,37.5
2022-09-15T03:25:02.022Z,37.5
2022-09-15T03:26:03.723Z,37.5
2022-09-15T03:27:05.412Z,37.5
2022-09-15T03:28:07.096Z,37.5
2022-09-15T03:29:11.694Z,37.4
2022-09-15T03:30:13.248Z,37.5
2022-09-15T03:31:14.928Z,37.5
2022-09-15T03:32:16.721Z,37.5
2022-09-15T03:33:18.908Z,37.4
2022-09-15T03:34:20.445Z,37.5
2022-09-15T03:35:21.984Z,37.5
2022-09-15T03:36:23.511Z,37.5
2022-09-15T03:37:25.175Z,37.5
2022-09-15T03:38:26.725Z,37.5
2022-09-15T03:39:28.363Z,37.5
2022-09-15T03:40:30.150Z,37.6
2022-09-15T03:41:32.214Z,37.5
2022-09-15T03:42:33.785Z,37.5
2022-09-15T03:43:35.336Z,37.5
2022-09-15T03:44:36.987Z,37.6
2022-09-15T03:45:39.012Z,37.5
2022-09-15T03:46:40.840Z,37.6
2022-09-15T03:47:42.594Z,37.5
2022-09-15T03:48:44.284Z,37.4
2022-09-15T03:49:46.051Z,37.4
2022-09-15T03:50:47.593Z,37.4
2022-09-15T03:51:49.207Z,37.4
2022-09-15T03:52:51.136Z,37.5
2022-09-15T03:54:00.248Z,37.4
2022-09-15T03:55:01.954Z,37.4
2022-09-15T03:56:03.636Z,37.4
2022-09-15T03:57:08.036Z,37.4
2022-09-15T03:58:09.603Z,37.4
2022-09-15T03:59:11.267Z,37.4
2022-09-15T04:00:13.048Z,37.4
2022-09-15T04:01:14.830Z,37.4
2022-09-15T04:02:17.101Z,37.4
2022-09-15T04:03:18.952Z,37.3
2022-09-15T04:04:20.546Z,37.3
2022-09-15T04:05:22.293Z,37.4
2022-09-15T04:06:23.936Z,37.4
2022-09-15T04:07:25.582Z,37.4
2022-09-15T04:08:27.130Z,37.5
2022-09-15T04:09:28.747Z,37.5
2022-09-15T04:10:30.388Z,37.5
2022-09-15T04:11:32.175Z,37.5
2022-09-15T04:12:34.190Z,37.6
2022-09-15T04:13:35.745Z,37.5
2022-09-15T04:14:37.324Z,37.6
2022-09-15T04:15:38.949Z,37.7
2022-09-15T04:16:40.839Z,37.7
2022-09-15T04:17:42.896Z,37.7
2022-09-15T04:18:44.479Z,37.7
2022-09-15T04:19:46.146Z,37.8
2022-09-15T04:20:47.678Z,37.9
2022-09-15T04:21:49.435Z,37.8
2022-09-15T04:22:51.153Z,37.9
2022-09-15T04:23:53.116Z,38
2022-09-15T04:24:54.829Z,37.9
2022-09-15T04:25:56.360Z,37.9
2022-09-15T04:26:58.184Z,37.9
2022-09-15T04:28:00.042Z,37.9
2022-09-15T04:29:05.056Z,38
2022-09-15T04:30:06.895Z,37.9
2022-09-15T04:31:08.664Z,37.9
2022-09-15T04:32:13.466Z,38
2022-09-15T04:33:15.116Z,38.1
2022-09-15T04:34:16.753Z,38.1
2022-09-15T04:35:18.255Z,38.2
2022-09-15T04:36:19.804Z,38
2022-09-15T04:37:21.487Z,38
2022-09-15T04:38:23.019Z,38
2022-09-15T04:39:24.564Z,38
2022-09-15T04:40:26.350Z,38
2022-09-15T04:41:28.219Z,38
2022-09-15T04:42:30.019Z,38
2022-09-15T04:43:31.688Z,38
2022-09-15T04:44:33.293Z,37.9
2022-09-15T04:45:37.586Z,37.9
2022-09-15T04:46:39.412Z,37.9
2022-09-15T04:47:41.365Z,37.9
2022-09-15T04:48:43.053Z,37.9
2022-09-15T04:49:44.793Z,37.9
2022-09-15T04:50:46.436Z,37.9
2022-09-15T04:51:47.984Z,37.8
2022-09-15T04:52:49.532Z,37.8
2022-09-15T04:53:51.688Z,37.8
2022-09-15T04:54:53.901Z,37.8
2022-09-15T04:55:55.459Z,37.8
2022-09-15T04:56:57.005Z,37.7
2022-09-15T04:57:58.799Z,37.8
2022-09-15T04:59:04.457Z,37.7
2022-09-15T05:00:06.062Z,37.7
2022-09-15T05:01:08.108Z,37.7
2022-09-15T05:02:10.232Z,37.6
2022-09-15T05:03:12.246Z,37.5
2022-09-15T05:04:13.984Z,37.5
2022-09-15T05:05:15.634Z,37.5
2022-09-15T05:06:17.251Z,37.4
2022-09-15T05:07:18.919Z,37.4
2022-09-15T05:08:20.568Z,37.4
2022-09-15T05:09:22.317Z,37.4
2022-09-15T05:10:23.935Z,37.4
2022-09-15T05:11:25.608Z,37.4
2022-09-15T05:12:27.193Z,37.4
2022-09-15T05:13:28.847Z,37.4
2022-09-15T05:14:30.667Z,37.4
2022-09-15T05:15:32.266Z,37.4
2022-09-15T05:16:34.011Z,37.4
2022-09-15T05:17:36.090Z,37.4
2022-09-15T05:18:37.734Z,37.3
2022-09-15T05:19:39.243Z,37.3
2022-09-15T05:20:40.822Z,37.3
2022-09-15T05:21:42.673Z,37.3
2022-09-15T05:22:44.300Z,37.3
2022-09-15T05:23:46.071Z,37.3
2022-09-15T05:24:47.815Z,37.3
2022-09-15T05:25:49.455Z,37.2
2022-09-15T05:26:51.104Z,37.3
2022-09-15T05:27:52.740Z,37.2
2022-09-15T05:28:54.456Z,37.2
2022-09-15T05:30:37.091Z,37.2
2022-09-15T05:31:46.378Z,37.2
2022-09-15T05:32:48.218Z,37.1
2022-09-15T05:33:49.767Z,37.1
2022-09-15T05:34:51.463Z,37
2022-09-15T05:35:53.000Z,37.1
2022-09-15T05:36:54.653Z,37.1
2022-09-15T05:37:56.189Z,37.1
2022-09-15T05:38:57.829Z,37
2022-09-15T05:39:59.715Z,37.1
2022-09-15T05:41:01.750Z,37.1
2022-09-15T05:42:03.599Z,37.1
2022-09-15T05:43:05.248Z,37
2022-09-15T05:44:06.895Z,37.1
2022-09-15T05:45:08.631Z,36.8
2022-09-15T05:46:10.572Z,36.9
2022-09-15T05:47:12.378Z,37
2022-09-15T05:48:14.181Z,36.9
2022-09-15T05:49:15.714Z,36.8
2022-09-15T05:50:17.374Z,36.8
2022-09-15T05:51:18.925Z,36.7
2022-09-15T05:52:20.507Z,36.7
2022-09-15T05:53:22.421Z,36.7
2022-09-15T05:54:24.058Z,36.7
2022-09-15T05:55:25.673Z,36.7
2022-09-15T05:56:27.244Z,36.6
2022-09-15T05:57:28.806Z,36.7
2022-09-15T05:58:30.571Z,37
2022-09-15T05:59:32.233Z,37
2022-09-15T06:00:34.093Z,37
2022-09-15T06:01:35.977Z,37
2022-09-15T06:02:38.056Z,36.8
2022-09-15T06:03:42.861Z,36.9
2022-09-15T06:04:44.502Z,36.9
2022-09-15T06:05:46.034Z,36.8
2022-09-15T06:06:47.575Z,37.1
2022-09-15T06:07:49.118Z,36.7
2022-09-15T06:08:58.743Z,36.8
2022-09-15T06:10:01.640Z,36.8
2022-09-15T06:11:03.712Z,36.6
2022-09-15T06:12:05.750Z,36.5
2022-09-15T06:13:07.333Z,36.6
2022-09-15T06:14:08.933Z,36.6
2022-09-15T06:15:10.583Z,36.6
2022-09-15T06:16:12.490Z,36.7
2022-09-15T06:17:14.360Z,36.6
2022-09-15T06:18:16.191Z,36.6
2022-09-15T06:19:18.086Z,36.5
2022-09-15T06:20:19.614Z,36.4
2022-09-15T06:21:21.694Z,36.3
2022-09-15T06:22:23.298Z,36.2
2022-09-15T06:23:25.369Z,36.2
2022-09-15T06:24:26.925Z,36.2
2022-09-15T06:25:28.531Z,36.2
2022-09-15T06:26:30.545Z,36.2
2022-09-15T06:27:32.170Z,36.2
2022-09-15T06:28:34.064Z,36.5
2022-09-15T06:29:35.743Z,36.2
2022-09-15T06:30:37.372Z,36.3
2022-09-15T06:31:39.201Z,36.2
2022-09-15T06:32:48.019Z,36.2
2022-09-15T06:33:50.145Z,36.2
2022-09-15T06:34:51.918Z,36.1
2022-09-15T06:35:53.463Z,36.2
2022-09-15T06:36:55.066Z,36.2
2022-09-15T06:37:56.746Z,36.5
2022-09-15T06:38:58.468Z,36.3
2022-09-15T06:40:00.283Z,36.4
2022-09-15T06:41:02.130Z,36.3
2022-09-15T06:42:06.065Z,36.3
2022-09-15T06:43:07.662Z,36.3
2022-09-15T06:44:09.414Z,36.2
2022-09-15T06:45:10.966Z,36.3
2022-09-15T06:46:12.958Z,36.3
2022-09-15T06:47:15.110Z,36.6
2022-09-15T06:48:25.332Z,36.5
2022-09-15T06:49:27.100Z,36.4
2022-09-15T06:50:28.743Z,36.4
2022-09-15T06:51:30.383Z,36.4
2022-09-15T06:52:31.927Z,36.3
2022-09-15T06:53:33.571Z,36.2
2022-09-15T06:54:35.170Z,36.2
2022-09-15T06:55:36.696Z,36.1
2022-09-15T06:56:38.711Z,36.1
2022-09-15T06:57:40.243Z,36.1
2022-09-15T06:58:42.072Z,36
2022-09-15T06:59:44.267Z,36.1
2022-09-15T07:00:45.847Z,36
2022-09-15T07:01:47.686Z,35.9
2022-09-15T07:02:49.974Z,35.9
2022-09-15T07:03:52.138Z,35.9
2022-09-15T07:04:54.074Z,35.8
2022-09-15T07:05:55.669Z,35.7
2022-09-15T07:06:57.420Z,35.7
2022-09-15T07:07:59.064Z,35.8
2022-09-15T07:09:00.709Z,35.8
2022-09-15T07:10:03.493Z,35.8
2022-09-15T07:11:05.127Z,35.8
2022-09-15T07:12:06.665Z,35.8
2022-09-15T07:13:08.279Z,35.9
2022-09-15T07:14:09.959Z,35.9
2022-09-15T07:15:11.581Z,35.9
2022-09-15T07:16:13.514Z,35.9
2022-09-15T07:17:15.616Z,35.7
2022-09-15T07:18:17.227Z,35.8
2022-09-15T07:19:18.922Z,35.8
2022-09-15T07:20:20.532Z,35.8
2022-09-15T07:21:22.091Z,35.8
2022-09-15T07:22:23.625Z,35.7
2022-09-15T07:23:25.173Z,35.7
2022-09-15T07:24:26.817Z,35.8
2022-09-15T07:25:28.388Z,35.8
2022-09-15T07:26:30.115Z,35.9
2022-09-15T07:27:31.738Z,36
2022-09-15T07:28:33.502Z,36.1
2022-09-15T07:29:38.117Z,36.1
2022-09-15T07:30:39.871Z,36.1
2022-09-15T07:31:41.766Z,36.1
2022-09-15T07:32:43.724Z,35.8
2022-09-15T07:33:45.623Z,35.7
2022-09-15T07:34:47.288Z,35.9
2022-09-15T07:35:48.898Z,35.9
2022-09-15T07:36:50.555Z,35.9
2022-09-15T07:37:52.091Z,35.9
2022-09-15T07:38:54.029Z,35.9
2022-09-15T07:39:55.766Z,35.8
2022-09-15T07:40:57.811Z,35.8
2022-09-15T07:41:59.500Z,35.7
2022-09-15T07:43:01.104Z,35.6
2022-09-15T07:44:02.700Z,35.6
2022-09-15T07:45:04.377Z,35.7
2022-09-15T07:46:06.214Z,35.6
2022-09-15T07:47:07.972Z,35.6
2022-09-15T07:48:09.628Z,35.6
2022-09-15T07:49:11.331Z,35.6
2022-09-15T07:50:12.883Z,35.6
2022-09-15T07:51:14.630Z,35.4
2022-09-15T07:52:16.275Z,35
2022-09-15T07:53:17.899Z,34.9
2022-09-15T07:54:23.188Z,35.1
2022-09-15T07:55:25.020Z,34.9
2022-09-15T07:56:26.559Z,35
2022-09-15T07:57:28.173Z,35
2022-09-15T07:58:29.786Z,34.6
2022-09-15T07:59:31.431Z,34.7
2022-09-15T08:00:33.249Z,34.5
2022-09-15T08:01:35.366Z,34.9
2022-09-15T08:02:37.430Z,35.1
2022-09-15T08:03:39.026Z,35.1
2022-09-15T08:04:40.719Z,34.6
2022-09-15T08:05:46.104Z,34.5
2022-09-15T08:06:47.861Z,34.4
2022-09-15T08:07:49.542Z,34.4
2022-09-15T08:08:59.202Z,34.3
2022-09-15T08:10:02.718Z,34.3
2022-09-15T08:11:04.430Z,34.3
2022-09-15T08:12:06.054Z,34.3
2022-09-15T08:13:07.583Z,34.7
2022-09-15T08:14:09.248Z,34.5
2022-09-15T08:15:10.885Z,34.1
2022-09-15T08:16:12.741Z,33.9
2022-09-15T08:17:14.698Z,33.5
2022-09-15T08:18:16.991Z,33.5
2022-09-15T08:19:18.802Z,33.4
2022-09-15T08:20:20.799Z,33.8
2022-09-15T08:21:22.935Z,34.3
2022-09-15T08:22:24.736Z,34.1
2022-09-15T08:23:26.401Z,34.6
2022-09-15T08:24:27.929Z,34.5
2022-09-15T08:25:29.567Z,34.3
2022-09-15T08:26:31.340Z,34
2022-09-15T08:27:32.984Z,33.8
2022-09-15T08:28:34.637Z,34.3
2022-09-15T08:29:36.280Z,34.1
2022-09-15T08:30:37.851Z,34
2022-09-15T08:31:39.638Z,34
2022-09-15T08:32:41.565Z,34.1
2022-09-15T08:33:46.222Z,34
2022-09-15T08:34:47.893Z,34
2022-09-15T08:35:49.650Z,34.3
2022-09-15T08:36:51.404Z,34.2
2022-09-15T08:37:53.012Z,34.2
2022-09-15T08:38:54.560Z,34.2
2022-09-15T08:39:56.264Z,34.1
2022-09-15T08:40:58.121Z,34
2022-09-15T08:41:59.809Z,33.9
2022-09-15T08:43:01.522Z,33.6
2022-09-15T08:44:03.110Z,34
2022-09-15T08:45:04.931Z,33.9
2022-09-15T08:46:06.594Z,33.8
2022-09-15T08:47:08.444Z,33.9
2022-09-15T08:48:10.271Z,34
2022-09-15T08:49:11.820Z,34
2022-09-15T08:50:13.442Z,33.8
2022-09-15T08:51:15.311Z,33.7
2022-09-15T08:52:17.014Z,33.5
2022-09-15T08:53:18.619Z,33.4
2022-09-15T08:54:20.246Z,33.4
2022-09-15T08:55:21.853Z,33.6
2022-09-15T08:56:23.433Z,33.5
2022-09-15T08:57:25.099Z,33.6
2022-09-15T08:58:26.747Z,33.8
2022-09-15T08:59:28.331Z,33.7
2022-09-15T09:00:29.912Z,33.6
2022-09-15T09:01:31.837Z,33.7
2022-09-15T09:02:34.069Z,33.7
2022-09-15T09:03:36.120Z,33.7
2022-09-15T09:04:37.745Z,33.7
2022-09-15T09:05:39.453Z,33.8
2022-09-15T09:06:41.142Z,33.8
2022-09-15T09:07:42.749Z,33.9
2022-09-15T09:08:44.719Z,33.7
2022-09-15T09:09:46.889Z,33.7
2022-09-15T09:10:48.578Z,33.8
2022-09-15T09:11:50.138Z,33.8
2022-09-15T09:12:51.690Z,33.8
2022-09-15T09:13:53.591Z,33.9
2022-09-15T09:14:55.359Z,33.9
2022-09-15T09:15:57.142Z,33.9
2022-09-15T09:16:59.125Z,33.9
2022-09-15T09:18:00.780Z,33.8
2022-09-15T09:19:02.346Z,33.7
2022-09-15T09:20:03.991Z,33.8
2022-09-15T09:21:05.709Z,33.9
2022-09-15T09:22:07.458Z,33.9
2022-09-15T09:23:09.060Z,33.9
2022-09-15T09:24:10.712Z,34.1
2022-09-15T09:25:28.283Z,34.1
2022-09-15T09:26:30.283Z,34.2
2022-09-15T09:27:31.822Z,34.1
2022-09-15T09:28:33.422Z,34
2022-09-15T09:29:35.047Z,33.9
2022-09-15T09:30:36.835Z,33.8
2022-09-15T09:31:38.616Z,33.9
2022-09-15T09:32:40.258Z,33.8
2022-09-15T09:33:48.130Z,33.9
2022-09-15T09:34:50.457Z,33.9
2022-09-15T09:35:52.049Z,33.8
2022-09-15T09:36:53.693Z,33.8
2022-09-15T09:37:55.479Z,33.8
2022-09-15T09:38:57.110Z,33.8
2022-09-15T09:39:59.001Z,33.8
2022-09-15T09:41:02.938Z,33.8
2022-09-15T09:42:04.930Z,33.8
2022-09-15T09:43:06.578Z,33.8
2022-09-15T09:44:08.195Z,33.7
2022-09-15T09:45:09.827Z,33.8
2022-09-15T09:46:11.650Z,33.8
2022-09-15T09:47:13.423Z,33.8
2022-09-15T09:48:15.223Z,33.9
2022-09-15T09:49:16.958Z,33.9
2022-09-15T09:50:18.611Z,33.7
2022-09-15T09:51:20.661Z,33.7
2022-09-15T09:52:22.307Z,33.7
2022-09-15T09:53:24.054Z,33.7
2022-09-15T09:54:25.699Z,33.6
2022-09-15T09:55:27.407Z,33.5
2022-09-15T09:56:29.197Z,33.6
2022-09-15T09:57:30.859Z,33.8
2022-09-15T09:58:32.407Z,33.8
2022-09-15T09:59:34.090Z,33.6
2022-09-15T10:00:35.679Z,33.6
2022-09-15T10:01:37.643Z,33.5
2022-09-15T10:02:40.082Z,33.6
2022-09-15T10:03:41.659Z,33.7
2022-09-15T10:04:43.444Z,33.6
2022-09-15T10:05:45.370Z,33.6
2022-09-15T10:06:47.078Z,33.6
2022-09-15T10:07:48.820Z,33.7
2022-09-15T10:08:50.597Z,33.7
2022-09-15T10:09:52.807Z,33.6
2022-09-15T10:10:54.523Z,33.6
2022-09-15T10:11:56.125Z,33.6
2022-09-15T10:12:57.746Z,33.6
2022-09-15T10:13:59.343Z,33.6
2022-09-15T10:15:00.895Z,33.6
2022-09-15T10:16:02.600Z,33.6
2022-09-15T10:17:04.407Z,33.6
2022-09-15T10:18:06.293Z,33.7
2022-09-15T10:19:07.820Z,33.7
2022-09-15T10:20:09.373Z,33.6
2022-09-15T10:21:10.999Z,33.6
2022-09-15T10:22:12.554Z,33.7
2022-09-15T10:23:14.358Z,33.7
2022-09-15T10:24:18.418Z,33.7
2022-09-15T10:25:20.160Z,33.8
2022-09-15T10:26:21.878Z,33.7
2022-09-15T10:27:23.558Z,33.6
2022-09-15T10:28:25.210Z,33.7
2022-09-15T10:29:26.831Z,33.5
2022-09-15T10:30:28.756Z,33.4
2022-09-15T10:31:30.562Z,33.2
2022-09-15T10:32:32.716Z,33.2
2022-09-15T10:33:34.359Z,33.3
2022-09-15T10:34:35.900Z,33.5
2022-09-15T10:35:37.543Z,33.8
2022-09-15T10:36:39.174Z,33.6
2022-09-15T10:37:40.718Z,33.3
2022-09-15T10:38:42.710Z,33.4
2022-09-15T10:39:44.584Z,33.6
2022-09-15T10:40:46.681Z,33.5
2022-09-15T10:41:48.322Z,33.5
2022-09-15T10:42:49.872Z,33.6
2022-09-15T10:43:51.444Z,33.5
2022-09-15T10:44:53.370Z,33.4
2022-09-15T10:45:55.198Z,33.2
2022-09-15T10:46:57.040Z,33.2
2022-09-15T10:47:58.589Z,33.1
2022-09-15T10:49:00.256Z,33.1
2022-09-15T10:50:01.905Z,33.1
2022-09-15T10:51:03.860Z,33.1
2022-09-15T10:52:05.472Z,33.2
2022-09-15T10:53:07.010Z,33.1
2022-09-15T10:54:08.613Z,33
2022-09-15T10:55:10.472Z,33
2022-09-15T10:56:12.269Z,33
2022-09-15T10:57:14.190Z,32.9
2022-09-15T10:58:16.048Z,32.8
2022-09-15T10:59:17.645Z,32.8
2022-09-15T11:00:19.842Z,32.7
2022-09-15T11:01:22.388Z,32.8
2022-09-15T11:02:24.466Z,32.9
2022-09-15T11:03:26.502Z,33
2022-09-15T11:04:28.217Z,33.1
2022-09-15T11:05:29.799Z,33.2
2022-09-15T11:06:31.879Z,33.1
2022-09-15T11:07:33.577Z,33.1
2022-09-15T11:08:35.174Z,33.1
2022-09-15T11:09:36.913Z,33
2022-09-15T11:10:38.812Z,33
2022-09-15T11:11:40.406Z,33.1
2022-09-15T11:12:42.099Z,33.1
2022-09-15T11:13:44.048Z,32.9
2022-09-15T11:14:45.619Z,33
2022-09-15T11:15:47.406Z,33.2
2022-09-15T11:16:49.301Z,33
2022-09-15T11:17:50.916Z,33.1
2022-09-15T11:18:52.471Z,33.4
2022-09-15T11:19:54.132Z,33.3
2022-09-15T11:20:55.691Z,33.5
2022-09-15T11:21:57.243Z,33.4
2022-09-15T11:22:58.982Z,33.4
2022-09-15T11:24:00.684Z,33.3
2022-09-15T11:25:02.423Z,33.3
2022-09-15T11:26:04.170Z,33.3
2022-09-15T11:27:05.732Z,33.3
2022-09-15T11:28:07.538Z,33.3
2022-09-15T11:29:09.237Z,33.3
2022-09-15T11:30:10.883Z,33.3
2022-09-15T11:31:12.815Z,33.4
2022-09-15T11:32:14.737Z,33.4
2022-09-15T11:33:16.393Z,33.4
2022-09-15T11:34:17.954Z,33.4
2022-09-15T11:35:19.624Z,33.4
2022-09-15T11:36:21.130Z,33.4
2022-09-15T11:37:22.706Z,33.4
2022-09-15T11:38:24.279Z,33.4
2022-09-15T11:39:25.820Z,33.4
2022-09-15T11:40:27.799Z,33.5
2022-09-15T11:41:29.806Z,33.5
2022-09-15T11:42:31.449Z,33.5
2022-09-15T11:43:33.091Z,33.5
2022-09-15T11:44:34.678Z,33.5
2022-09-15T11:45:36.277Z,33.5
2022-09-15T11:46:38.051Z,33.5
2022-09-15T11:47:39.943Z,33.6
2022-09-15T11:48:41.512Z,33.6
2022-09-15T11:49:43.313Z,33.6
2022-09-15T11:50:45.113Z,33.6
2022-09-15T11:51:46.778Z,33.6
2022-09-15T11:52:48.392Z,33.6
2022-09-15T11:53:49.944Z,33.6
2022-09-15T11:54:51.544Z,33.6
2022-09-15T11:55:53.455Z,33.6
2022-09-15T11:56:55.094Z,33.6
2022-09-15T11:57:56.704Z,33.6
2022-09-15T11:58:58.538Z,33.5
2022-09-15T12:00:00.122Z,33.5
2022-09-15T12:01:01.840Z,33.5
2022-09-15T12:02:03.747Z,33.4
2022-09-15T12:03:05.913Z,33.5
2022-09-15T12:04:07.784Z,33.5
2022-09-15T12:05:09.584Z,33.5
2022-09-15T12:06:11.251Z,33.5
2022-09-15T12:07:14.908Z,33.5
2022-09-15T12:08:16.559Z,33.4
2022-09-15T12:09:18.321Z,33.4
2022-09-15T12:10:19.866Z,33.4
2022-09-15T12:11:21.669Z,33.4
2022-09-15T12:12:28.064Z,33.5
2022-09-15T12:13:33.013Z,33.5
2022-09-15T12:14:37.282Z,33.5
2022-09-15T12:15:39.101Z,33.5
2022-09-15T12:16:40.938Z,33.5
2022-09-15T12:17:42.514Z,33.5
2022-09-15T12:18:47.198Z,33.4
2022-09-15T12:19:49.000Z,33.3
2022-09-15T12:20:50.707Z,33.3
2022-09-15T12:21:52.373Z,33.2
2022-09-15T12:22:55.273Z,33.2
2022-09-15T12:23:56.798Z,33
2022-09-15T12:25:01.563Z,32.9
2022-09-15T12:26:03.243Z,32.8
2022-09-15T12:27:05.124Z,32.6
2022-09-15T12:28:06.874Z,32.7
2022-09-15T12:29:08.442Z,32.6
2022-09-15T12:30:10.062Z,32.6
2022-09-15T12:31:11.866Z,32.6
2022-09-15T12:32:13.865Z,32.5
2022-09-15T12:33:15.513Z,32.5
2022-09-15T12:34:17.056Z,32.4
2022-09-15T12:35:18.697Z,32.3
2022-09-15T12:36:20.349Z,32.3
2022-09-15T12:37:22.199Z,32.4
2022-09-15T12:38:24.251Z,32.3
2022-09-15T12:39:26.204Z,32.1
2022-09-15T12:40:28.339Z,31.8
2022-09-15T12:41:30.596Z,32.4
2022-09-15T12:42:33.405Z,32.4
2022-09-15T12:43:35.364Z,32.1
2022-09-15T12:44:37.533Z,31.7
2022-09-15T12:45:39.364Z,31.4
2022-09-15T12:46:41.353Z,31.8
2022-09-15T12:47:43.461Z,31.8
2022-09-15T12:48:47.797Z,31.6
2022-09-15T12:49:49.720Z,31.7
2022-09-15T12:50:51.571Z,31.6
2022-09-15T12:51:53.421Z,31.6
2022-09-15T12:52:55.165Z,31.8
2022-09-15T12:53:57.020Z,31.9
2022-09-15T12:54:58.764Z,32.1
2022-09-15T12:56:00.405Z,31.9
2022-09-15T12:57:02.052Z,31.9
2022-09-15T12:58:03.804Z,31.7
2022-09-15T12:59:07.278Z,31.6
2022-09-15T13:00:09.105Z,31.6
2022-09-15T13:01:18.902Z,31.1
2022-09-15T13:02:21.562Z,31.3
2022-09-15T13:03:23.973Z,30.9
2022-09-15T13:04:25.816Z,30.8
2022-09-15T13:05:27.369Z,30.9
2022-09-15T13:06:29.061Z,30.8
2022-09-15T13:07:30.796Z,30.9
2022-09-15T13:08:32.484Z,31
2022-09-15T13:09:34.185Z,30.7
2022-09-15T13:10:35.822Z,30.9
2022-09-15T13:11:37.979Z,30.8
2022-09-15T13:12:40.294Z,30.6
2022-09-15T13:13:42.204Z,30.8
2022-09-15T13:14:44.055Z,31.1
2022-09-15T13:15:45.966Z,30.4
2022-09-15T13:16:47.897Z,30.4
2022-09-15T13:17:49.456Z,30.5
2022-09-15T13:18:51.143Z,30.1
2022-09-15T13:19:52.736Z,30
2022-09-15T13:20:54.373Z,30.3
2022-09-15T13:21:58.926Z,30.2
2022-09-15T13:23:00.494Z,30.2
2022-09-15T13:24:02.237Z,30.2
2022-09-15T13:25:03.774Z,30.4
2022-09-15T13:26:05.316Z,30
2022-09-15T13:27:07.072Z,30
2022-09-15T13:28:08.842Z,29.9
2022-09-15T13:29:10.877Z,29.7
2022-09-15T13:30:12.623Z,30.3
2022-09-15T13:31:14.414Z,30.2
2022-09-15T13:32:16.375Z,30
2022-09-15T13:33:18.096Z,30.1
2022-09-15T13:35:12.627Z,30
2022-09-15T13:36:22.753Z,29.9
2022-09-15T13:38:06.606Z,30
2022-09-15T13:39:26.711Z,30
2022-09-15T13:40:28.542Z,30
2022-09-15T13:41:30.447Z,29.9
2022-09-15T13:42:32.014Z,30
2022-09-15T13:43:40.960Z,30.1
2022-09-15T13:44:43.031Z,30.1
2022-09-15T13:45:44.902Z,30.1
2022-09-15T13:46:46.902Z,30
2022-09-15T13:47:48.471Z,30.1
2022-09-15T13:48:50.134Z,30.3
2022-09-15T13:49:51.840Z,30.2
2022-09-15T13:50:53.558Z,30.2
2022-09-15T13:51:58.149Z,30.3
2022-09-15T13:52:59.821Z,30.3